Zim Vancouver — A8LK5 — position and weather

sailwx.info

Track history (hours):
 
Tides and Currents Weather Stations Pressure Air Temp Water Temp Dewpoint Dewpoint Depression Visibility Wind Speed Wind Dir Waves Ship Positions

Zim Vancouver

Last reported at 2014-Jul-12 02:33 UTC. Time now 2014-Jul-29 00:39 UTC.
Position N 30°43' E 032°21'.
Warning: this ship's position is 16 days out of date.

Length 260 m; draft 12.4 m.

Type: Ship (hazmat cat A). MMSI: 636013214.

Date/timePositionNaut miles runAvg speedWind from/ knotsBaromVisibWave heightAir tempDewpointWater temp
2014-Jul-12 02:33N 30°43' E 032°21'9 8.9
2014-Jul-12 01:33N 30°52' E 032°19'9 8.7
2014-Jul-12 00:33N 31°01' E 032°19'9 8.8
2014-Jul-11 23:33N 31°10' E 032°20'7 7.2
2014-Jul-11 22:33N 31°17' E 032°22'7 6.8
2014-Jul-11 21:33N 31°24' E 032°21'1 1.0
2014-Jul-11 20:33N 31°23' E 032°19'0 0.1
2014-Jul-11 19:33N 31°23' E 032°20'0 0.0
2014-Jul-11 18:33N 31°23' E 032°20'0 0.0
2014-Jul-11 17:33N 31°23' E 032°20'0 0.0
2014-Jul-11 16:33N 31°23' E 032°20'1 0.9
2014-Jul-11 15:33N 31°24' E 032°20'7 6.7
2014-Jul-11 14:33N 31°31' E 032°21'1111.2
2014-Jul-11 13:33N 31°40' E 032°29'1111.4
2014-Jul-11 12:33N 31°49' E 032°37'1313.4
2014-Jul-11 11:33N 31°57' E 032°50'1313.2
2014-Jul-11 10:33N 32°05' E 033°02'1312.9
2014-Jul-11 09:33N 32°13' E 033°14'1313.0
2014-Jul-11 08:34N 32°21' E 033°26'1312.8
2014-Jul-11 07:32N 32°30' E 033°38'1412.8
2014-Jul-11 06:28N 32°38' E 033°51'1812.9
2014-Jul-11 05:05N 32°49' E 034°07'3011.7
2014-Jul-11 02:33N 32°56' E 034°42'17 2.4
2014-Jul-10 19:28N 32°49' E 035°01'0 0.0
2014-Jul-10 17:31N 32°49' E 035°01'0 0.0
2014-Jul-10 16:33N 32°49' E 035°01'0 0.0
2014-Jul-10 15:33N 32°49' E 035°01'0 0.0
2014-Jul-10 14:33N 32°49' E 035°01'0 0.0
2014-Jul-10 13:32N 32°49' E 035°01'0 0.0
2014-Jul-10 12:33N 32°49' E 035°01'0 0.0
2014-Jul-10 11:15N 32°49' E 035°01'0 0.0
2014-Jul-10 10:33N 32°49' E 035°01'0 0.0
2014-Jul-10 09:33N 32°49' E 035°01'4 0.5
2014-Jul-10 01:30N 32°53' E 034°58'1414.6
2014-Jul-10 00:32N 32°55' E 034°41'1817.9
2014-Jul-09 23:33N 32°60' E 034°21'1817.8
2014-Jul-09 22:33N 33°13' E 034°06'1717.4
2014-Jul-09 21:33N 33°22' E 033°49'1817.7
2014-Jul-09 20:34N 33°30' E 033°30'1817.8
2014-Jul-09 19:34N 33°37' E 033°10'1818.0
2014-Jul-09 18:33N 33°45' E 032°50'1818.2
2014-Jul-09 17:34N 33°52' E 032°31'1818.4
2014-Jul-09 16:34N 34°00' E 032°11'1918.7
2014-Jul-09 15:34N 34°08' E 031°50'1918.7
2014-Jul-09 14:34N 34°16' E 031°30'1918.6
2014-Jul-09 13:32N 34°23' E 031°09'26117.4
2014-Jul-08 22:33N 36°47' E 026°40'1717.3
2014-Jul-08 21:33N 37°04' E 026°40'1717.4
2014-Jul-08 20:33N 37°13' E 026°21'1717.3
2014-Jul-08 19:33N 37°22' E 026°03'1716.9
2014-Jul-08 18:34N 37°32' E 025°46'1916.9
2014-Jul-08 17:26N 37°51' E 025°44'1617.6
2014-Jul-08 16:33N 38°06' E 025°44'1717.1
2014-Jul-08 15:33N 38°24' E 025°43'1717.3
2014-Jul-08 14:33N 38°41' E 025°43'8316.0
2014-Jul-08 09:22N 40°01' E 026°09'4013.3
2014-Jul-08 06:23N 40°27' E 026°48'118 5.7
2014-Jul-07 09:33N 41°19' E 029°09'7 4.9
2014-Jul-07 08:09N 41°21' E 029°18'111 8.2
2014-Jul-06 18:33N 43°09' E 029°52'1414.1
2014-Jul-06 17:33N 43°22' E 029°57'1413.9
2014-Jul-06 16:33N 43°36' E 030°03'15814.3
2014-Jul-06 05:33N 46°07' E 031°04'1413.8
2014-Jul-06 04:33N 46°19' E 030°52'1210.9
2014-Jul-06 03:27N 46°30' E 030°46'9 0.4
2014-Jul-05 02:12N 46°22' E 030°53'189 9.1
2014-Jul-04 05:32N 44°17' E 034°14'1919.3
2014-Jul-04 04:34N 44°18' E 034°40'1919.3
2014-Jul-04 03:33N 44°17' E 035°07'2118.7
2014-Jul-04 02:27N 44°16' E 035°36'3518.5
2014-Jul-04 00:32N 44°12' E 036°25'1817.9
2014-Jul-03 23:33N 44°13' E 036°50'1918.7
2014-Jul-03 22:34N 44°22' E 037°13'1918.7
2014-Jul-03 21:33N 44°30' E 037°37'  
Track history (hours):
 
Tides and Currents Weather Stations Pressure Air Temp Water Temp Dewpoint Dewpoint Depression Visibility Wind Speed Wind Dir Waves Ship Positions

Zim Vancouver

Last reported at 2014-Jul-12 02:33 UTC. Time now 2014-Jul-29 00:39 UTC.
Position N 30°43' E 032°21'.
Warning: this ship's position is 16 days out of date.

Length 260 m; draft 12.4 m.

Type: Ship (hazmat cat A). MMSI: 636013214.

Date/timePositionNaut miles runAvg speedWind from/ knotsBaromVisibWave heightAir tempDewpointWater temp
2014-Jul-12 02:33N 30°43' E 032°21'9 8.9
2014-Jul-12 01:33N 30°52' E 032°19'9 8.7
2014-Jul-12 00:33N 31°01' E 032°19'9 8.8
2014-Jul-11 23:33N 31°10' E 032°20'7 7.2
2014-Jul-11 22:33N 31°17' E 032°22'7 6.8
2014-Jul-11 21:33N 31°24' E 032°21'1 1.0
2014-Jul-11 20:33N 31°23' E 032°19'0 0.1
2014-Jul-11 19:33N 31°23' E 032°20'0 0.0
2014-Jul-11 18:33N 31°23' E 032°20'0 0.0
2014-Jul-11 17:33N 31°23' E 032°20'0 0.0
2014-Jul-11 16:33N 31°23' E 032°20'1 0.9
2014-Jul-11 15:33N 31°24' E 032°20'7 6.7
2014-Jul-11 14:33N 31°31' E 032°21'1111.2
2014-Jul-11 13:33N 31°40' E 032°29'1111.4
2014-Jul-11 12:33N 31°49' E 032°37'1313.4
2014-Jul-11 11:33N 31°57' E 032°50'1313.2
2014-Jul-11 10:33N 32°05' E 033°02'1312.9
2014-Jul-11 09:33N 32°13' E 033°14'1313.0
2014-Jul-11 08:34N 32°21' E 033°26'1312.8
2014-Jul-11 07:32N 32°30' E 033°38'1412.8
2014-Jul-11 06:28N 32°38' E 033°51'1812.9
2014-Jul-11 05:05N 32°49' E 034°07'3011.7
2014-Jul-11 02:33N 32°56' E 034°42'17 2.4
2014-Jul-10 19:28N 32°49' E 035°01'0 0.0
2014-Jul-10 17:31N 32°49' E 035°01'0 0.0
2014-Jul-10 16:33N 32°49' E 035°01'0 0.0
2014-Jul-10 15:33N 32°49' E 035°01'0 0.0
2014-Jul-10 14:33N 32°49' E 035°01'0 0.0
2014-Jul-10 13:32N 32°49' E 035°01'0 0.0
2014-Jul-10 12:33N 32°49' E 035°01'0 0.0
2014-Jul-10 11:15N 32°49' E 035°01'0 0.0
2014-Jul-10 10:33N 32°49' E 035°01'0 0.0
2014-Jul-10 09:33N 32°49' E 035°01'4 0.5
2014-Jul-10 01:30N 32°53' E 034°58'1414.6
2014-Jul-10 00:32N 32°55' E 034°41'1817.9
2014-Jul-09 23:33N 32°60' E 034°21'1817.8
2014-Jul-09 22:33N 33°13' E 034°06'1717.4
2014-Jul-09 21:33N 33°22' E 033°49'1817.7
2014-Jul-09 20:34N 33°30' E 033°30'1817.8
2014-Jul-09 19:34N 33°37' E 033°10'1818.0
2014-Jul-09 18:33N 33°45' E 032°50'1818.2
2014-Jul-09 17:34N 33°52' E 032°31'1818.4
2014-Jul-09 16:34N 34°00' E 032°11'1918.7
2014-Jul-09 15:34N 34°08' E 031°50'1918.7
2014-Jul-09 14:34N 34°16' E 031°30'1918.6
2014-Jul-09 13:32N 34°23' E 031°09'26117.4
2014-Jul-08 22:33N 36°47' E 026°40'1717.3
2014-Jul-08 21:33N 37°04' E 026°40'1717.4
2014-Jul-08 20:33N 37°13' E 026°21'1717.3
2014-Jul-08 19:33N 37°22' E 026°03'1716.9
2014-Jul-08 18:34N 37°32' E 025°46'1916.9
2014-Jul-08 17:26N 37°51' E 025°44'1617.6
2014-Jul-08 16:33N 38°06' E 025°44'1717.1
2014-Jul-08 15:33N 38°24' E 025°43'1717.3
2014-Jul-08 14:33N 38°41' E 025°43'8316.0
2014-Jul-08 09:22N 40°01' E 026°09'4013.3
2014-Jul-08 06:23N 40°27' E 026°48'118 5.7
2014-Jul-07 09:33N 41°19' E 029°09'7 4.9
2014-Jul-07 08:09N 41°21' E 029°18'111 8.2
2014-Jul-06 18:33N 43°09' E 029°52'1414.1
2014-Jul-06 17:33N 43°22' E 029°57'1413.9
2014-Jul-06 16:33N 43°36' E 030°03'15814.3
2014-Jul-06 05:33N 46°07' E 031°04'1413.8
2014-Jul-06 04:33N 46°19' E 030°52'1210.9
2014-Jul-06 03:27N 46°30' E 030°46'9 0.4
2014-Jul-05 02:12N 46°22' E 030°53'189 9.1
2014-Jul-04 05:32N 44°17' E 034°14'1919.3
2014-Jul-04 04:34N 44°18' E 034°40'1919.3
2014-Jul-04 03:33N 44°17' E 035°07'2118.7
2014-Jul-04 02:27N 44°16' E 035°36'3518.5
2014-Jul-04 00:32N 44°12' E 036°25'1817.9
2014-Jul-03 23:33N 44°13' E 036°50'1918.7
2014-Jul-03 22:34N 44°22' E 037°13'1918.7
2014-Jul-03 21:33N 44°30' E 037°37'  

Dump ship's entire track history